Data for 09/21/2014

Time Sea-Level Adjusted Pressure Absolute Pressure Temperature Relative Humidity Dew Point Precipitation   
(mb) (inHg) (mb) (inHg) (C) (F) (%) (C) (F) (mm) (in)
00:05 1027 30.33 856 25.28 14.9 58.8 49 4.2 39.6 0 0
00:10 1027 30.33 856 25.28 14.6 58.4 49 4.2 39.6 0 0
00:15 1027 30.33 856 25.28 14.5 58.2 50 4.3 39.7 0 0
00:20 1027 30.33 856 25.28 14.4 57.9 50 4.1 39.3 0 0
00:25 1027 30.33 856 25.28 14.3 57.8 51 4.3 39.7 0 0
00:30 1027 30.33 856 25.28 14.1 57.4 51 4.2 39.6 0 0
00:35 1027 30.33 856 25.28 14.1 57.3 51 4.1 39.4 0 0
00:40 1027 30.33 856 25.28 14 57.2 51 4 39.3 0 0
00:45 1027 30.33 856 25.28 14 57.2 51 4.2 39.6 0 0
00:50 1027 30.33 856 25.28 13.8 56.9 53 4.4 39.8 0 0
00:55 1027 30.33 856 25.28 13.7 56.6 52 4.1 39.4 0 0
01:00 1027 30.33 856 25.28 13.6 56.5 52 4.1 39.4 0 0
01:05 1027 30.33 856 25.28 13.7 56.6 52 4.1 39.4 0 0
01:10 1027 30.33 857 25.31 13.7 56.6 52 4.2 39.5 0 0
01:15 1027 30.33 857 25.31 13.5 56.4 53 4.2 39.5 0 0
01:20 1027 30.33 857 25.31 13.4 56.2 53 4 39.3 0 0
01:25 1027 30.33 857 25.31 13.4 56.2 53 4.1 39.4 0 0
01:30 1027 30.33 857 25.31 13.3 56 53 4 39.1 0 0
01:35 1027 30.33 857 25.31 13.4 56 53 4 39.2 0 0
01:40 1027 30.33 857 25.31 13.4 56.1 52 3.9 39.1 0 0
01:45 1027 30.33 857 25.31 13.3 55.9 53 4 39.2 0 0
01:50 1027 30.33 857 25.31 13.2 55.8 53 4 39.2 0 0
01:55 1027 30.33 857 25.31 13.2 55.8 53 4 39.2 0 0
02:00 1027 30.33 857 25.31 13.2 55.7 52 3.7 38.7 0 0
02:05 1027 30.33 857 25.31 13.3 56 52 3.8 38.8 0 0
02:10 1027 30.33 857 25.31 13.4 56.1 51 3.7 38.6 0 0
02:15 1027 30.33 857 25.31 13.4 56.1 53 3.9 39.1 0 0
02:20 1027 30.33 857 25.31 13.3 55.9 52 3.8 38.8 0 0
02:25 1027 30.33 857 25.31 13.3 55.9 52 3.7 38.7 0 0
02:30 1027 30.33 856 25.28 13.2 55.7 53 3.8 38.8 0 0
02:35 1027 30.33 856 25.28 12.9 55.2 54 3.9 39.1 0 0
02:40 1027 30.33 856 25.28 12.7 54.8 55 3.8 38.9 0 0
02:45 1027 30.33 857 25.31 12.7 54.9 54 3.8 38.8 0 0
02:50 1027 30.33 857 25.31 12.6 54.8 55 3.8 38.9 0 0
02:55 1027 30.33 857 25.31 12.5 54.6 55 3.8 38.8 0 0
03:00 1027 30.33 857 25.31 12.5 54.6 56 4 39.1 0 0
03:05 1027 30.33 857 25.31 12.4 54.4 54 3.6 38.4 0 0
03:10 1027 30.33 857 25.31 12.6 54.6 55 3.7 38.7 0 0
03:15 1027 30.33 857 25.31 12.6 54.7 55 3.8 38.8 0 0
03:20 1027 30.33 857 25.31 12.5 54.5 56 4 39.2 0 0
03:25 1027 30.33 856 25.28 12.5 54.6 54 3.6 38.5 0 0
03:30 1027 30.33 857 25.31 12.5 54.5 56 3.9 39.1 0 0
03:35 1027 30.33 857 25.31 12.3 54.1 56 3.8 38.8 0 0
03:40 1027 30.33 857 25.31 12.4 54.2 55 3.6 38.5 0 0
03:45 1027 30.33 856 25.28 12.6 54.6 55 3.8 38.9 0 0
03:50 1027 30.33 857 25.31 12.5 54.4 56 4 39.2 0 0
03:55 1027 30.33 857 25.31 12.4 54.3 56 3.8 38.8 0 0
04:00 1027 30.33 857 25.31 12.3 54.2 56 3.9 39 0 0
04:05 1027 30.33 857 25.31 12.3 54.1 55 3.6 38.4 0 0
04:10 1027 30.33 857 25.31 12.4 54.3 56 3.9 39 0 0
04:15 1027 30.33 857 25.31 12.3 54.2 55 3.7 38.7 0 0
04:20 1027 30.33 857 25.31 12.2 54 57 4.1 39.3 0 0
04:25 1027 30.33 857 25.31 12 53.6 57 3.8 38.8 0 0
04:30 1027 30.33 857 25.31 12 53.5 57 3.9 38.9 0 0
04:35 1027 30.33 857 25.31 11.8 53.3 59 4 39.3 0 0
04:40 1027 30.33 857 25.31 11.7 53 59 3.9 39.1 0 0
04:45 1027 30.33 856 25.28 11.6 52.8 59 3.9 39.1 0 0
04:50 1027 30.33 856 25.28 11.3 52.4 61 4 39.2 0 0
04:55 1027 30.33 856 25.28 11.3 52.3 60 3.9 39 0 0
05:00 1027 30.33 856 25.28 11.4 52.5 60 3.8 38.9 0 0
05:05 1027 30.33 856 25.28 11.3 52.3 60 3.9 39 0 0
05:10 1027 30.33 857 25.31 11.3 52.3 60 3.9 39 0 0
05:15 1027 30.33 857 25.31 11.1 52.1 61 4 39.1 0 0
05:20 1027 30.33 857 25.31 11 51.8 61 3.9 38.9 0 0
05:25 1027 30.33 856 25.28 10.8 51.4 62 3.9 39 0 0
05:30 1027 30.33 856 25.28 10.6 51 63 3.9 39.1 0 0
05:35 1027 30.33 856 25.28 10.2 50.4 65 4 39.1 0 0
05:40 1027 30.33 856 25.28 9.9 49.8 65 3.8 38.8 0 0
05:45 1027 30.33 856 25.28 9.7 49.5 66 3.8 38.8 0 0
05:50 1027 30.33 856 25.28 9.6 49.2 67 3.7 38.7 0 0
05:55 1027 30.33 856 25.28 9.7 49.5 65 3.6 38.5 0 0
06:00 1027 30.33 856 25.28 9.8 49.7 66 3.8 38.9 0 0
06:05 1027 30.33 856 25.28 10.1 50.1 63 3.4 38.2 0 0
06:10 1027 30.33 856 25.28 10.7 51.2 62 3.7 38.7 0 0
06:15 1027 30.33 856 25.28 10.7 51.3 62 3.8 38.8 0 0
06:20 1027 30.33 856 25.28 10.2 50.4 66 4.2 39.6 0 0
06:25 1027 30.33 856 25.28 9.3 48.8 69 4 39.3 0 0
06:30 1027 30.33 856 25.28 9.4 48.8 68 3.7 38.6 0 0
06:35 1027 30.33 856 25.28 9.6 49.3 67 3.7 38.7 0 0
06:40 1027 30.33 856 25.28 9.7 49.5 66 3.8 38.9 0 0
06:45 1027 30.33 856 25.28 9.7 49.5 67 3.9 39 0 0
06:50 1027 30.33 856 25.28 9.7 49.4 67 3.8 38.9 0 0
06:55 1027 30.33 856 25.28 9.7 49.4 67 3.9 38.9 0 0
07:00 1027 30.33 856 25.28 9.5 49.1 67 3.8 38.8 0 0
07:05 1027 30.33 856 25.28 9.3 48.7 68 3.7 38.6 0 0
07:10 1027 30.33 856 25.28 8.7 47.6 69 3.4 38.2 0 0
07:15 1027 30.33 856 25.28 8 46.5 73 3.4 38.2 0 0
07:20 1027 30.33 856 25.28 7.3 45.1 75 3.1 37.5 0 0
07:25 1027 30.33 856 25.28 6.4 43.5 76 2.6 36.6 0 0
07:30 1027 30.33 856 25.28 6.4 43.5 78 2.8 37 0 0
07:35 1027 30.33 856 25.28 5.9 42.6 81 2.9 37.2 0 0
07:40 1027 30.33 856 25.28 6.1 42.9 79 2.8 37 0 0
07:45 1027 30.33 856 25.28 6.5 43.7 77 2.7 36.9 0 0
07:50 1027 30.33 856 25.28 6.7 44 76 2.8 37 0 0
07:55 1027 30.33 856 25.28 6.5 43.6 77 2.7 36.9 0 0
08:00 1027 30.33 856 25.28 6.5 43.7 78 3 37.3 0 0
08:05 1027 30.33 856 25.28 6.8 44.3 78 3.3 37.9 0 0
08:10 1027 30.33 856 25.28 7.2 45 77 3.5 38.2 0 0
08:15 1027 30.33 856 25.28 7.9 46.1 75 3.8 38.8 0 0
08:20 1027 30.33 856 25.28 8.5 47.2 75 4.2 39.6 0 0
08:25 1027 30.33 856 25.28 9 48.3 73 4.4 40 0 0
08:30 1027 30.33 856 25.28 10.7 51.3 63 4.1 39.3 0 0
08:35 1027 30.33 856 25.28 11.8 53.3 61 4.6 40.2 0 0
08:40 1027 30.33 856 25.28 12.3 54.1 59 4.5 40 0 0
08:45 1027 30.33 856 25.28 12.5 54.5 59 4.8 40.6 0 0
08:50 1027 30.33 856 25.28 12.7 54.9 58 4.7 40.4 0 0
08:55 1027 30.33 856 25.28 12.8 55.1 59 5.1 41.1 0 0
09:00 1027 30.33 856 25.28 13.1 55.7 56 4.7 40.4 0 0
09:05 1027 30.33 856 25.28 13.5 56.2 58 5.3 41.6 0 0
09:10 1027 30.33 856 25.28 13.8 56.8 55 4.9 40.9 0 0
09:15 1027 30.33 856 25.28 13.8 56.8 58 5.6 42.2 0 0
09:20 1027 30.33 856 25.28 13.9 57 57 5.5 42 0 0
09:25 1027 30.33 856 25.28 14.2 57.6 55 5.3 41.5 0 0
09:30 1027 30.33 856 25.28 14.5 58 52 4.9 40.9 0 0
09:35 1027 30.33 856 25.28 14.5 58.1 54 5.3 41.5 0 0
09:40 1027 30.33 856 25.28 14.6 58.3 53 5.1 41.2 0 0
09:45 1027 30.33 856 25.28 14.7 58.5 54 5.7 42.3 0 0
09:50 1027 30.33 856 25.28 14.8 58.7 53 5.5 42 0 0
09:55 1027 30.33 856 25.28 14.9 58.8 52 5.2 41.3 0 0
10:00 1027 30.33 856 25.28 15.1 59.1 52 5.2 41.4 0 0
10:05 1027 30.33 856 25.28 15.3 59.6 53 5.9 42.6 0 0
10:10 1027 30.33 856 25.28 15.7 60.3 53 6.2 43.2 0 0
10:15 1027 30.33 856 25.28 15.8 60.4 49 5.1 41.2 0 0
10:20 1027 30.33 856 25.28 15.7 60.2 54 6.5 43.7 0 0
10:25 1027 30.33 856 25.28 15.6 60.1 54 6.4 43.5 0 0
10:30 1027 30.33 856 25.28 15.5 59.9 49 4.9 40.8 0 0
10:35 1027 30.33 856 25.28 15.7 60.3 57 7.2 45 0 0
10:40 1027 30.33 856 25.28 15.7 60.2 53 6.1 43.1 0 0
10:45 1027 30.33 856 25.28 15.5 59.9 53 6 42.9 0 0
10:50 1027 30.33 856 25.28 15.6 60 54 6.3 43.4 0 0
10:55 1027 30.33 856 25.28 15.7 60.3 49 5 41.1 0 0
11:00 1027 30.33 856 25.28 15.8 60.5 51 5.9 42.7 0 0
11:05 1027 30.33 856 25.28 15.8 60.5 56 7.1 44.8 0 0
11:10 1027 30.33 856 25.28 16 60.9 52 6.4 43.5 0 0
11:15 1027 30.33 856 25.28 16.1 60.9 48 5.3 41.5 0 0
11:20 1027 30.33 856 25.28 16.1 60.9 55 7.2 44.9 0 0
11:25 1027 30.33 856 25.28 16.2 61.2 51 6.2 43.2 0 0
11:30 1027 30.33 856 25.28 16.3 61.4 54 7.1 44.8 0 0
11:35 1027 30.33 856 25.28 16.3 61.4 58 8.2 46.7 0 0
11:40 1026 30.3 856 25.28 16.4 61.4 52 6.6 43.9 0 0
11:45 1026 30.3 856 25.28 16.8 62.2 51 6.5 43.8 0 0
11:50 1026 30.3 856 25.28 16.8 62.2 49 6.2 43.2 0 0
11:55 1026 30.3 856 25.28 16.7 62 48 5.8 42.5 0 0
12:00 1026 30.3 856 25.28 16.6 61.9 49 5.8 42.5 0 0
12:05 1026 30.3 856 25.28 16.7 62.1 48 5.9 42.6 0 0
12:10 1026 30.3 855 25.25 17 62.6 56 8.2 46.7 0 0
12:15 1026 30.3 855 25.25 17.4 63.3 52 7.5 45.5 0 0
12:20 1026 30.3 855 25.25 17.4 63.2 51 7.3 45.1 0 0
12:25 1026 30.3 855 25.25 17.4 63.3 51 7.3 45.2 0 0
12:30 1026 30.3 855 25.25 17.4 63.3 50 6.8 44.3 0 0
12:35 1026 30.3 855 25.25 17.7 63.8 45 5.8 42.5 0 0
12:40 1026 30.3 855 25.25 17.6 63.6 46 5.8 42.5 0 0
12:45 1026 30.3 855 25.25 17.8 64 46 6.1 43 0 0
12:50 1026 30.3 855 25.25 18.2 64.8 48 7.2 45 0 0
12:55 1026 30.3 855 25.25 18.2 64.8 45 6.4 43.4 0 0
13:00 1026 30.3 855 25.25 18.2 64.8 50 7.8 46 0 0
13:05 1025 30.27 855 25.25 18.6 65.5 50 8.1 46.6 0 0
13:10 1025 30.27 855 25.25 18.7 65.6 44 6.2 43.2 0 0
13:15 1025 30.27 854 25.22 18.6 65.5 47 7.2 44.9 0 0
13:20 1025 30.27 854 25.22 18.8 65.9 45 6.9 44.4 0 0
13:25 1025 30.27 854 25.22 19.1 66.4 47 7.7 45.8 0 0
13:30 1025 30.27 854 25.22 19.3 66.8 47 7.7 45.9 0 0
13:35 1025 30.27 854 25.22 19.6 67.3 44 7.3 45.1 0 0
13:40 1025 30.27 854 25.22 19.5 67 45 7.4 45.3 0 0
13:45 1025 30.27 854 25.22 19.1 66.3 43 6.4 43.5 0 0
13:50 1025 30.27 854 25.22 19.1 66.5 42 5.9 42.7 0 0
13:55 1025 30.27 854 25.22 19.4 67 47 7.9 46.2 0 0
14:00 1025 30.27 854 25.22 19.8 67.7 40 5.8 42.5 0 0
14:05 1025 30.27 854 25.22 20 68 45 8 46.3 0 0
14:10 1024 30.24 854 25.22 20.2 68.3 47 8.6 47.5 0 0
14:15 1024 30.24 854 25.22 20.4 68.8 40 6.4 43.6 0 0
14:20 1024 30.24 854 25.22 20.6 69 43 7.6 45.6 0 0
14:25 1024 30.24 853 25.19 20.5 68.9 37 5.4 41.7 0 0
14:30 1024 30.24 853 25.19 20.5 69 38 6.1 42.9 0 0
14:35 1024 30.24 853 25.19 20.7 69.2 38 6.1 43.1 0 0
14:40 1024 30.24 853 25.19 20.6 69.1 44 8 46.5 0 0
14:45 1024 30.24 853 25.19 20.8 69.4 41 7.1 44.8 0 0
14:50 1024 30.24 853 25.19 20.9 69.7 44 8.4 47.2 0 0
14:55 1024 30.24 853 25.19 21.2 70.1 36 5.7 42.3 0 0
15:00 1024 30.24 853 25.19 21.1 70 38 6.5 43.8 0 0
15:05 1024 30.24 853 25.19 21.4 70.6 38 6.9 44.4 0 0
15:10 1024 30.24 853 25.19 21.6 70.9 37 6.6 43.9 0 0
15:15 1024 30.24 853 25.19 21.8 71.2 42 8.5 47.3 0 0
15:20 1024 30.24 853 25.19 22.1 71.7 35 6 42.8 0 0
15:25 1024 30.24 853 25.19 22 71.7 36 6.6 43.8 0 0
15:30 1024 30.24 853 25.19 22 71.6 37 6.8 44.2 0 0
15:35 1024 30.24 853 25.19 22.1 71.7 36 6.5 43.7 0 0
15:40 1023 30.21 853 25.19 22.2 71.9 35 6.1 43 0 0
15:45 1023 30.21 853 25.19 22 71.6 34 5.8 42.4 0 0
15:50 1023 30.21 853 25.19 22 71.6 32 4.9 40.8 0 0
15:55 1023 30.21 853 25.19 22 71.6 32 4.9 40.8 0 0
16:00 1023 30.21 852 25.16 22 71.6 34 5.8 42.4 0 0
16:05 1023 30.21 852 25.16 22 71.7 33 5.2 41.3 0 0
16:10 1023 30.21 852 25.16 22 71.5 33 5.1 41.2 0 0
16:15 1023 30.21 852 25.16 21.7 71.1 33 5.1 41.2 0 0
16:20 1023 30.21 852 25.16 21.2 70.2 33 4.6 40.3 0 0
16:25 1023 30.21 852 25.16 21 69.8 36 5.6 42 0 0
16:30 1023 30.21 852 25.16 21.1 69.9 36 5.7 42.2 0 0
16:35 1023 30.21 852 25.16 21.1 70 36 5.5 42 0 0
16:40 1023 30.21 852 25.16 21.1 69.9 38 6.4 43.6 0 0
16:45 1023 30.21 852 25.16 21.2 70.2 35 5.4 41.7 0 0
16:50 1023 30.21 852 25.16 21 69.8 36 5.5 42 0 0
16:55 1023 30.21 852 25.16 20.8 69.4 37 5.7 42.2 0 0
17:00 1023 30.21 852 25.16 20.7 69.3 36 5.5 41.8 0 0
17:05 1023 30.21 852 25.16 20.7 69.3 37 5.6 42 0 0
17:10 1023 30.21 852 25.16 20.6 69.1 40 6.5 43.7 0 0
17:15 1023 30.21 852 25.16 20.5 68.8 40 6.4 43.6 0 0
17:20 1023 30.21 852 25.16 20.2 68.3 39 6 42.9 0 0
17:25 1023 30.21 852 25.16 19.9 67.9 40 6 42.8 0 0
17:30 1023 30.21 852 25.16 19.8 67.6 41 6.3 43.3 0 0
17:35 1023 30.21 852 25.16 19.8 67.7 41 6.2 43.2 0 0
17:40 1023 30.21 852 25.16 19.9 67.8 41 6.4 43.6 0 0
17:45 1023 30.21 852 25.16 19.8 67.7 41 6.2 43.2 0 0
17:50 1023 30.21 852 25.16 19.9 67.8 40 6.2 43.1 0 0
17:55 1023 30.21 852 25.16 19.6 67.3 41 6 42.8 0 0
18:00 1023 30.21 852 25.16 19.4 66.9 42 6.3 43.3 0 0
18:05 1023 30.21 852 25.16 19.2 66.5 42 6.2 43.2 0 0
18:10 1023 30.21 852 25.16 19 66.2 44 6.7 44.1 0 0
18:15 1023 30.21 852 25.16 18.8 65.8 44 6.3 43.3 0 0
18:20 1023 30.21 852 25.16 18.7 65.7 44 6.3 43.4 0 0
18:25 1023 30.21 852 25.16 18.7 65.7 44 6.3 43.3 0 0
18:30 1023 30.21 852 25.16 18.8 65.8 45 6.6 43.8 0 0
18:35 1023 30.21 852 25.16 18.7 65.7 45 6.7 44 0 0
18:40 1023 30.21 852 25.16 18.5 65.3 47 7 44.7 0 0
18:45 1023 30.21 852 25.16 18.4 65.1 47 7.1 44.7 0 0
18:50 1023 30.21 852 25.16 18.2 64.8 47 6.8 44.3 0 0
18:55 1023 30.21 852 25.16 18.3 64.9 46 6.8 44.2 0 0
19:00 1023 30.21 852 25.16 18.3 64.9 48 7.1 44.8 0 0
19:05 1023 30.21 852 25.16 18.2 64.7 47 6.9 44.5 0 0
19:10 1023 30.21 852 25.16 18.2 64.7 47 6.9 44.5 0 0
19:15 1023 30.21 852 25.16 18.1 64.6 48 7.2 44.9 0 0
19:20 1023 30.21 852 25.16 18 64.4 48 7.1 44.7 0 0
19:25 1023 30.21 852 25.16 17.9 64.2 49 7.3 45.1 0 0
19:30 1023 30.21 852 25.16 17.7 63.8 50 7.4 45.3 0 0
19:35 1023 30.21 852 25.16 17.5 63.4 51 7.3 45.1 0 0
19:40 1023 30.21 852 25.16 17.4 63.4 50 7.1 44.9 0 0
19:45 1023 30.21 852 25.16 17.4 63.3 51 7.2 45 0 0
19:50 1023 30.21 852 25.16 17.4 63.2 51 7.3 45.1 0 0
19:55 1023 30.21 852 25.16 17.4 63.2 51 7.1 44.9 0 0
20:00 1022 30.18 852 25.16 17.6 63.6 50 7 44.6 0 0
20:05 1023 30.21 852 25.16 17.6 63.6 50 7.1 44.8 0 0
20:10 1023 30.21 852 25.16 17.5 63.5 50 7.1 44.8 0 0
20:15 1023 30.21 852 25.16 17.4 63.4 51 7.2 45 0 0
20:20 1023 30.21 852 25.16 17.4 63.4 49 6.9 44.4 0 0
20:25 1023 30.21 852 25.16 17.5 63.5 50 7 44.6 0 0
20:30 1023 30.21 852 25.16 17.4 63.3 50 7.1 44.7 0 0
20:35 1023 30.21 852 25.16 17.2 62.9 51 7 44.6 0 0
20:40 1023 30.21 852 25.16 17.2 63 50 6.8 44.2 0 0
20:45 1023 30.21 852 25.16 17.3 63.1 50 6.9 44.3 0 0
20:50 1023 30.21 852 25.16 17.2 62.9 50 6.8 44.2 0 0
20:55 1023 30.21 852 25.16 17.1 62.8 50 6.7 44 0 0
21:00 1023 30.21 852 25.16 17.1 62.7 50 6.6 43.8 0 0
21:05 1023 30.21 852 25.16 17 62.6 51 6.9 44.5 0 0
21:10 1023 30.21 852 25.16 16.8 62.2 51 6.6 43.8 0 0
21:15 1023 30.21 852 25.16 16.9 62.4 51 6.7 44 0 0
21:20 1023 30.21 852 25.16 16.8 62.2 51 6.6 43.9 0 0
21:25 1022 30.18 852 25.16 16.8 62.2 50 6.5 43.7 0 0
21:30 1022 30.18 852 25.16 16.8 62.3 50 6.6 43.9 0 0
21:35 1022 30.18 852 25.16 16.8 62.3 50 6.5 43.7 0 0
21:40 1022 30.18 852 25.16 16.8 62.2 51 6.7 44.1 0 0
21:45 1022 30.18 852 25.16 16.6 61.9 50 6.4 43.4 0 0
21:50 1022 30.18 852 25.16 16.7 62.1 50 6.4 43.5 0 0
21:55 1022 30.18 852 25.16 16.8 62.2 50 6.4 43.5 0 0
22:00 1022 30.18 851 25.13 16.8 62.2 50 6.3 43.3 0 0
22:05 1022 30.18 851 25.13 16.8 62.3 50 6.5 43.7 0 0
22:10 1022 30.18 851 25.13 16.7 62 50 6.2 43.2 0 0
22:15 1022 30.18 851 25.13 16.7 62 50 6.3 43.4 0 0
22:20 1022 30.18 851 25.13 16.7 62 50 6.3 43.4 0 0
22:25 1022 30.18 851 25.13 16.6 61.9 50 6.3 43.3 0 0
22:30 1022 30.18 851 25.13 16.6 61.8 50 6.2 43.2 0 0
22:35 1022 30.18 851 25.13 16.5 61.8 50 6.3 43.4 0 0
22:40 1022 30.18 851 25.13 16.4 61.6 50 6.2 43.2 0 0
22:45 1022 30.18 851 25.13 16.5 61.6 50 6 42.8 0 0
22:50 1022 30.18 851 25.13 16.4 61.6 50 6.1 43.1 0 0
22:55 1022 30.18 851 25.13 16.4 61.6 50 5.9 42.7 0 0
23:00 1022 30.18 851 25.13 16.5 61.7 49 5.8 42.4 0 0
23:05 1022 30.18 851 25.13 16.5 61.7 49 5.9 42.7 0 0
23:10 1022 30.18 851 25.13 16.5 61.7 49 5.7 42.3 0 0
23:15 1022 30.18 851 25.13 16.5 61.8 48 5.7 42.2 0 0
23:20 1022 30.18 851 25.13 16.5 61.8 48 5.6 42.1 0 0
23:25 1022 30.18 851 25.13 16.5 61.7 48 5.5 41.9 0 0
23:30 1022 30.18 851 25.13 16.5 61.6 47 5.4 41.6 0 0
23:35 1022 30.18 851 25.13 16.5 61.6 47 5.2 41.4 0 0
23:40 1022 30.18 851 25.13 16.5 61.7 46 5 41.1 0 0
23:45 1022 30.18 851 25.13 16.6 61.9 47 5.4 41.7 0 0
23:50 1022 30.18 851 25.13 16.4 61.5 48 5.4 41.8 0 0
23:55 1022 30.18 851 25.13 16.3 61.4 48 5.3 41.5 0 0
24:00 1022 30.18 851 25.13 16.5 61.7 46 4.9 40.9 0 0